Hauptseite
METAR-TAF:

METAR-TAF

Flughäfen :

Flughafen Jakutsk

Jakutsk, Russland

Breite: 62-01N, Länge: 129-43E, Höhe: 103 m

Beobachtung

Neuester Wetterbericht von vor 48 Minuten, um 18:00 UTC
Windstille
Temperatur -25°C
Luftfeuchtigkeit 76%
Luftdruck 1017 hPa
Sichtweite 10 km oder mehr
Schnee leicht

METAR: UEEE 161800Z 00000MPS 9999 -SN NSC M25/M28 Q1017 R23L/490155 NOSIG RMK QFE754

Zeit: 03:48 (18:48 UTC)

Prognose

Neuester Wetterbericht von vor 1 Stunde und 48 Minuten, um 17:00 UTC
Gültige Prognose vom 16 um 18 UTC bis 17 um 24 UTC
Wind 2 kt aus unterschiedlichen Richtungen
Sichtweite: 3200 m
Geschlossene Wolkendecke in der Höhe von 7000 ft
Schnee leicht, feuchter Dunst
Zeitweise
vom 16 um 18 UTC bis 17 um 03 UTC
Sichtweite: 0300 m
in der Höhe von 200 ft
Gefrierender Nebel

TAF: UEEE 161700Z 1618/1724 VRB01MPS 3200 -SN BR OVC070 TEMPO 1618/1703 0300 FZFG VV002

Wetterbeobachtungen und Prognosen von mehr als 4000 Flughäfen (METAR und TAF Bericht).

Die verfügbaren Stationen werden durch gelbe und rote Markierungen auf der Karte dargestellt.

Führen Sie die Maus auf sie, um den Namen der Station zu sehen.

Darauf klicken, um die Beobachtung von Wetterbeobachtungen und Prognosen zu sehen.

Um die Karte zu ändern : klicken Sie auf den grünen Tasten mit einem schwarzen Kreuz Zum Vergrößern, auf den grünen Button mit einem Gedankenstrich zu verkleinern, oder auf die grünen Pfeile für benachbarte Karten.


METAR-TAF: